Time;durP1;ratioP1;P1;durP2;ratioP2;P2;SDS_P1;SDS_P2;PMS_P1;PMS_P2;Temp;Humidity;BMP_temperature;BMP_pressure;BME280_temperature;BME280_humidity;BME280_pressure;Samples;Min_cycle;Max_cycle;Signal;HPM_P1;HPM_P2
2023/08/22 00:02:06;;;;;;;4.83;2.40;;;20.90;93.90;;;20.95;63.37;101389.81;5055666;28;20580;-75
2023/08/22 00:04:40;;;;;;;8.93;2.73;;;20.90;93.80;;;20.83;62.70;101386.88;5055417;28;20703;-75
2023/08/22 00:07:13;;;;;;;4.33;2.47;;;20.80;93.50;;;20.93;62.68;101381.00;5055518;28;20682;-75
2023/08/22 00:09:46;;;;;;;3.40;2.40;;;21.00;94.10;;;20.91;62.78;101378.50;5055325;28;20636;-75
2023/08/22 00:12:20;;;;;;;3.67;2.47;;;20.90;93.60;;;20.77;63.43;101373.28;5055717;28;20281;-75
2023/08/22 00:14:53;;;;;;;4.03;2.63;;;20.80;94.10;;;20.75;63.66;101374.34;5055197;28;20678;-75
2023/08/22 00:17:27;;;;;;;3.73;2.30;;;20.70;94.40;;;20.76;63.77;101375.16;5055573;28;20247;-75
2023/08/22 00:20:00;;;;;;;5.37;2.37;;;20.80;94.50;;;20.69;63.82;101371.63;5055739;28;20201;-75
2023/08/22 00:22:34;;;;;;;3.60;2.50;;;21.80;94.70;;;20.67;64.28;101360.97;5055112;28;20587;-75
2023/08/22 00:25:10;;;;;;;4.33;2.57;;;20.70;94.50;;;20.67;64.69;101368.28;5055089;28;20189;-75
2023/08/22 00:27:44;;;;;;;7.13;2.40;;;20.70;94.70;;;20.71;64.28;101354.06;5055356;28;20213;-75
2023/08/22 00:30:17;;;;;;;5.90;2.07;;;20.70;94.50;;;20.70;63.79;101355.09;5055238;28;20641;-75
2023/08/22 00:32:50;;;;;;;4.47;2.47;;;20.70;94.40;;;20.60;64.75;101345.69;5054841;28;20616;-75
2023/08/22 00:35:28;;;;;;;3.37;2.47;;;20.60;94.60;;;20.51;65.09;101339.66;5055434;28;20201;-75
2023/08/22 00:38:01;;;;;;;4.07;2.60;;;20.50;95.00;;;20.59;64.76;101336.69;5055099;28;20225;-76
2023/08/22 00:40:34;;;;;;;4.23;2.60;;;20.60;94.90;;;20.50;64.20;101337.13;5055032;28;20186;-76
2023/08/22 00:43:08;;;;;;;4.67;2.50;;;20.50;94.90;;;20.47;65.32;101338.38;5054928;28;20253;-76
2023/08/22 00:45:43;;;;;;;4.93;2.40;;;20.40;95.50;;;20.42;65.21;101334.59;5055307;28;20277;-75
2023/08/22 00:48:18;;;;;;;4.67;2.10;;;20.40;95.40;;;20.36;64.99;101341.72;5054592;28;20596;-75
2023/08/22 00:50:52;;;;;;;7.77;2.40;;;20.40;95.10;;;20.34;65.82;101352.00;5054792;28;20277;-75
2023/08/22 00:53:25;;;;;;;4.70;2.23;;;20.30;95.50;;;20.34;65.48;101343.84;5054826;28;20313;-75
2023/08/22 00:55:59;;;;;;;4.73;2.40;;;20.30;95.80;;;20.27;65.54;101343.00;5055001;28;20190;-75
2023/08/22 00:58:33;;;;;;;5.57;2.70;;;20.20;95.50;;;20.21;65.09;101346.50;5054825;28;20197;-75
2023/08/22 01:01:07;;;;;;;3.93;2.37;;;20.20;95.50;;;20.28;65.11;101344.66;5054953;28;20289;-75
2023/08/22 01:03:41;;;;;;;5.00;2.30;;;20.30;95.50;;;20.27;65.42;101343.00;5054168;28;20602;-75
2023/08/22 01:06:27;;;;;;;3.80;2.30;;;20.40;95.40;;;20.34;65.31;101345.72;5054529;28;20191;-75
2023/08/22 01:09:10;;;;;;;4.80;2.70;;;20.40;95.60;;;20.30;65.69;101353.47;5054439;28;20637;-75
2023/08/22 01:11:49;;;;;;;4.37;2.73;;;20.40;95.50;;;20.30;65.74;101353.47;5054387;28;20225;-75
2023/08/22 01:14:28;;;;;;;3.83;2.27;;;20.30;95.80;;;20.34;66.31;101360.16;5053815;28;20731;-75
2023/08/22 01:17:02;;;;;;;3.07;2.70;;;20.40;96.00;;;20.25;66.16;101361.34;5054056;28;20711;-75
2023/08/22 01:19:36;;;;;;;3.50;2.30;;;20.30;95.90;;;20.29;66.31;101367.25;5054264;28;20723;-75
2023/08/22 01:22:10;;;;;;;7.33;2.60;;;20.30;96.10;;;20.22;66.58;101356.34;5054240;28;20295;-75
2023/08/22 01:24:43;;;;;;;4.90;2.93;;;20.20;96.20;;;20.19;66.64;101346.72;5054119;28;20313;-75
2023/08/22 01:27:21;;;;;;;4.60;2.93;;;20.30;96.40;;;20.15;66.53;101340.03;5054150;28;20190;-75
2023/08/22 01:30:04;;;;;;;4.77;2.60;;;20.20;96.10;;;20.13;66.38;101346.72;5054136;28;20270;-75
2023/08/22 01:32:49;;;;;;;6.37;3.00;;;20.20;96.20;;;20.15;66.35;101350.06;5053665;28;20197;-75
2023/08/22 01:35:25;;;;;;;3.20;2.87;;;20.20;96.20;;;20.19;66.01;101346.72;5054113;28;20221;-75
2023/08/22 01:38:00;;;;;;;5.93;3.07;;;20.30;96.10;;;20.18;66.08;101344.19;5054152;28;20612;-75
2023/08/22 01:40:36;;;;;;;7.40;2.93;;;20.30;96.00;;;20.14;66.70;101335.63;5053701;28;20561;-75
2023/08/22 01:43:10;;;;;;;5.13;2.70;;;20.20;96.50;;;20.12;66.30;101323.28;5053783;28;20316;-75
2023/08/22 01:45:43;;;;;;;3.73;2.50;;;20.20;96.30;;;20.04;66.91;101316.16;5053874;28;20284;-75
2023/08/22 01:48:17;;;;;;;5.40;2.77;;;20.10;96.50;;;19.95;67.14;101303.00;5053767;28;20194;-75
2023/08/22 01:50:50;;;;;;;3.40;2.60;;;20.00;96.70;;;19.89;67.81;101306.56;5054000;28;20201;-75
2023/08/22 01:53:23;;;;;;;3.40;2.77;;;19.90;97.60;;;19.92;68.07;101322.44;5053667;28;20223;-75
2023/08/22 01:56:00;;;;;;;3.40;2.60;;;20.00;97.40;;;19.92;68.47;101311.56;5053690;28;20285;-75
2023/08/22 01:58:33;;;;;;;5.63;2.50;;;20.00;97.40;;;19.86;68.50;101315.97;5053441;28;20194;-75
2023/08/22 02:01:14;;;;;;;3.53;2.63;;;20.00;97.40;;;19.92;68.34;101317.84;5053655;28;20194;-75
2023/08/22 02:03:47;;;;;;;4.40;2.70;;;20.00;97.60;;;19.93;68.61;101318.69;5053487;28;20230;-75
2023/08/22 02:06:21;;;;;;;3.80;2.70;;;20.00;97.70;;;19.89;68.27;101312.00;5053932;28;20225;-75
2023/08/22 02:08:54;;;;;;;7.93;2.50;;;20.00;97.40;;;19.92;67.27;101308.84;5053529;28;20230;-75
2023/08/22 02:11:28;;;;;;;4.40;2.40;;;20.00;97.00;;;19.94;67.11;101315.75;5053470;28;20190;-75
2023/08/22 02:14:02;;;;;;;5.17;2.70;;;20.00;96.90;;;19.88;68.19;101321.19;5053136;28;20230;-75
2023/08/22 02:16:35;;;;;;;6.50;2.63;;;20.00;97.40;;;19.88;68.37;101310.31;5052824;28;20260;-75
2023/08/22 02:19:10;;;;;;;3.90;2.23;;;20.00;97.50;;;19.94;67.87;101304.03;5053146;28;20641;-75
2023/08/22 02:21:44;;;;;;;4.47;2.70;;;20.00;97.50;;;19.85;68.09;101302.56;5053423;28;20189;-75
2023/08/22 02:24:17;;;;;;;3.77;2.43;;;20.00;97.30;;;19.83;68.27;101302.75;5053218;28;20230;-75
2023/08/22 02:26:50;;;;;;;5.70;2.80;;;20.00;97.80;;;19.77;68.27;101286.47;5053435;28;20285;-75
2023/08/22 02:29:24;;;;;;;3.53;2.43;;;19.90;97.40;;;19.78;68.34;101277.28;5053297;28;20293;-75
2023/08/22 02:31:57;;;;;;;3.03;2.30;;;19.90;97.60;;;19.80;67.71;101275.16;5053228;28;20233;-75
2023/08/22 02:34:30;;;;;;;4.80;2.20;;;19.90;97.20;;;19.79;68.15;101273.53;5052961;28;20707;-75
2023/08/22 02:37:04;;;;;;;3.13;2.20;;;19.90;97.70;;;19.77;68.93;101264.72;5053135;28;20554;-75
2023/08/22 02:39:37;;;;;;;4.03;2.50;;;19.90;97.90;;;19.80;68.46;101275.16;5052950;28;20284;-75
2023/08/22 02:42:11;;;;;;;5.63;2.30;;;19.90;97.80;;;19.79;68.83;101277.09;5052871;28;20560;-75
2023/08/22 02:44:44;;;;;;;7.23;2.93;;;19.90;97.90;;;19.74;68.79;101277.69;5053206;28;20289;-75
2023/08/22 02:47:18;;;;;;;4.80;2.27;;;19.90;98.00;;;19.70;68.60;101270.16;5053119;28;20190;-75
2023/08/22 02:49:52;;;;;;;4.03;2.57;;;19.80;97.80;;;19.73;68.66;101259.72;5053115;28;20217;-75
2023/08/22 02:52:25;;;;;;;4.33;2.47;;;19.80;97.90;;;19.69;69.20;101247.56;5052786;28;20636;-75
2023/08/22 02:54:58;;;;;;;5.60;2.40;;;19.80;98.50;;;19.64;68.95;101246.53;5053183;28;20234;-75
2023/08/22 02:57:33;;;;;;;5.00;2.50;;;19.80;98.10;;;19.64;69.17;101255.53;5053226;28;20244;-75
2023/08/22 03:00:11;;;;;;;4.07;2.10;;;19.80;98.20;;;19.62;69.20;101256.78;5052852;28;20186;-75
2023/08/22 03:02:45;;;;;;;4.77;2.30;;;19.80;98.00;;;19.58;69.85;101253.66;5059143;28;20241;-74
2023/08/22 03:05:18;;;;;;;7.47;2.50;;;19.70;98.50;;;19.55;69.01;101251.34;5054925;28;20679;-74
2023/08/22 03:07:51;;;;;;;3.30;2.50;;;19.70;98.40;;;19.57;69.79;101257.41;5053398;28;20222;-75
2023/08/22 03:10:24;;;;;;;5.00;2.37;;;19.80;99.10;;;19.57;69.12;101257.41;5053276;28;20230;-75
2023/08/22 03:12:58;;;;;;;4.53;2.67;;;19.70;98.40;;;19.58;68.59;101250.09;5053078;28;20308;-75
2023/08/22 03:15:31;;;;;;;6.60;2.57;;;19.80;98.00;;;19.60;68.22;101253.41;5053540;28;20285;-75
2023/08/22 03:18:05;;;;;;;5.53;2.57;;;19.80;97.50;;;19.60;68.51;101251.53;5053362;28;20194;-75
2023/08/22 03:20:39;;;;;;;6.83;2.40;;;19.80;98.10;;;19.62;68.77;101252.16;5053264;28;20606;-75
2023/08/22 03:23:12;;;;;;;3.13;2.20;;;19.80;98.20;;;19.63;68.16;101253.84;5053055;28;20771;-75
2023/08/22 03:25:45;;;;;;;4.63;2.20;;;19.80;97.90;;;19.66;68.00;101252.59;5053521;28;20197;-75
2023/08/22 03:28:19;;;;;;;2.63;2.13;;;19.80;97.60;;;19.65;68.40;101259.94;5054612;28;20290;-75
2023/08/22 03:30:57;;;;;;;5.87;2.30;;;19.80;97.90;;;19.63;69.57;101270.13;5056902;28;20189;-75
2023/08/22 03:33:36;;;;;;;4.87;2.23;;;19.80;98.30;;;19.61;69.40;101258.66;5056562;28;20218;-76
2023/08/22 03:36:10;;;;;;;4.93;2.40;;;19.80;98.50;;;19.60;69.33;101251.53;5056573;28;20198;-75
2023/08/22 03:38:46;;;;;;;8.83;2.43;;;19.80;98.50;;;19.60;68.62;101245.28;5056561;28;20656;-76
2023/08/22 03:41:19;;;;;;;5.13;2.27;;;19.80;98.00;;;19.59;69.05;101255.28;5055952;28;20194;-74
2023/08/22 03:43:53;;;;;;;5.03;2.47;;;19.80;98.20;;;19.56;69.04;101266.56;5055518;28;20236;-75
2023/08/22 03:46:26;;;;;;;3.67;2.53;;;19.80;98.40;;;19.57;70.04;101265.53;5056316;28;20186;-75
2023/08/22 03:49:10;;;;;;;4.97;2.33;;;19.70;98.70;;;19.59;69.99;101266.16;5056543;28;20244;-75
2023/08/22 03:51:44;;;;;;;4.17;2.20;;;19.80;98.90;;;19.61;70.41;101276.84;5056019;28;20197;-75
2023/08/22 03:54:17;;;;;;;4.03;2.30;;;19.80;98.90;;;19.58;70.04;101272.66;5055748;28;20264;-75
2023/08/22 03:56:50;;;;;;;4.70;2.73;;;19.80;98.80;;;19.60;69.28;101267.00;5055816;28;20214;-75
2023/08/22 03:59:23;;;;;;;6.80;2.57;;;19.80;98.40;;;19.60;68.51;101265.13;5056151;28;20281;-75
2023/08/22 04:01:58;;;;;;;4.17;2.37;;;19.80;98.10;;;19.60;68.66;101265.13;5055883;28;20201;-75
2023/08/22 04:04:31;;;;;;;4.50;2.17;;;19.80;98.20;;;19.61;67.63;101253.22;5055799;28;20291;-75
2023/08/22 04:07:05;;;;;;;4.83;2.70;;;19.80;97.70;;;19.63;67.83;101251.13;5055998;28;20633;-75
2023/08/22 04:09:38;;;;;;;4.00;2.30;;;19.80;97.80;;;19.62;68.46;101256.78;5055426;28;20600;-75
2023/08/22 04:12:12;;;;;;;6.03;3.00;;;19.80;97.90;;;19.60;69.22;101248.84;5055519;28;20281;-75
2023/08/22 04:14:45;;;;;;;4.33;2.70;;;19.80;98.40;;;19.60;69.67;101248.00;5055242;28;20240;-75
2023/08/22 04:17:18;;;;;;;10.87;2.77;;;19.80;98.50;;;19.58;69.07;101229.19;5055465;28;20229;-75
2023/08/22 04:19:52;;;;;;;6.77;2.57;;;19.80;98.30;;;19.58;69.68;101233.78;5055427;28;20269;-75
2023/08/22 04:22:26;;;;;;;5.47;3.00;;;19.70;98.70;;;19.54;70.98;101230.66;5055328;28;20243;-75
2023/08/22 04:24:59;;;;;;;5.40;2.60;;;19.70;99.30;;;19.50;70.49;101236.69;5055115;28;20240;-75
2023/08/22 04:27:33;;;;;;;3.40;2.50;;;19.70;99.20;;;19.52;71.06;101251.72;5055234;28;20201;-75
2023/08/22 04:30:09;;;;;;;7.80;2.97;;;19.70;99.60;;;19.49;71.37;101256.75;5055189;28;20201;-75
2023/08/22 04:32:42;;;;;;;3.57;2.60;;;19.60;99.70;;;19.51;71.36;101258.22;5055046;28;20217;-75
2023/08/22 04:35:16;;;;;;;5.60;2.47;;;19.70;99.80;;;19.49;70.27;101263.00;5055075;28;20197;-75
2023/08/22 04:37:49;;;;;;;3.77;2.47;;;19.70;99.20;;;19.50;70.33;101248.41;5054648;28;20534;-75
2023/08/22 04:40:23;;;;;;;6.10;2.57;;;19.70;99.10;;;19.52;70.69;101249.00;5054802;28;20282;-75
2023/08/22 04:42:55;;;;;;;5.87;2.50;;;19.70;99.30;;;19.50;71.37;101253.84;5055072;28;20285;-75
2023/08/22 04:45:30;;;;;;;3.83;2.50;;;19.70;99.60;;;19.46;72.17;101241.69;5054808;28;20240;-75
2023/08/22 04:48:03;;;;;;;4.97;2.63;;;19.60;99.90;;;19.45;71.72;101245.44;5054872;28;20187;-75
2023/08/22 04:50:37;;;;;;;8.60;3.00;;;19.60;99.80;;;19.48;71.77;101249.66;5055011;28;20190;-75
2023/08/22 04:53:10;;;;;;;5.63;2.47;;;19.70;99.90;;;19.45;72.36;101267.16;5054699;28;20222;-75
2023/08/22 04:55:43;;;;;;;7.13;2.50;;;19.70;99.90;;;19.48;72.50;101261.34;5054774;28;20274;-75
2023/08/22 04:58:16;;;;;;;5.47;2.60;;;19.70;99.90;;;19.48;72.02;101255.94;5054865;28;20232;-75
2023/08/22 05:00:50;;;;;;;5.27;2.80;;;19.70;99.90;;;19.44;71.62;101248.38;5054311;28;20190;-75
2023/08/22 05:03:23;;;;;;;4.90;2.67;;;19.60;99.90;;;19.40;72.47;101252.50;5054178;28;20600;-75
2023/08/22 05:05:56;;;;;;;3.57;2.60;;;19.60;99.90;;;19.40;72.56;101238.94;5054550;28;20295;-75
2023/08/22 05:08:30;;;;;;;4.17;2.50;;;19.60;99.90;;;19.39;72.70;101238.09;5054404;28;20202;-75
2023/08/22 05:11:03;;;;;;;5.67;3.43;;;19.60;99.90;;;19.37;72.61;101240.19;5054104;28;20636;-75
2023/08/22 05:13:36;;;;;;;4.17;2.90;;;19.60;99.90;;;19.39;73.36;101240.81;5053873;28;20291;-75
2023/08/22 05:16:09;;;;;;;4.90;3.20;;;19.60;99.90;;;19.40;72.80;101237.06;5054387;28;20281;-75
2023/08/22 05:18:43;;;;;;;4.30;2.80;;;19.60;99.90;;;19.38;73.35;101233.72;5054480;28;20190;-75
2023/08/22 05:21:16;;;;;;;7.17;2.87;;;19.60;99.90;;;19.39;73.10;101237.25;5054438;28;20281;-75
2023/08/22 05:23:50;;;;;;;6.63;2.80;;;19.60;99.90;;;19.39;73.72;101235.38;5054143;28;20253;-75
2023/08/22 05:26:23;;;;;;;5.50;3.00;;;19.60;99.90;;;19.38;73.41;101243.75;5054129;28;20721;-75
2023/08/22 05:28:56;;;;;;;8.27;3.10;;;19.60;99.90;;;19.40;73.39;101238.94;5054114;28;20229;-75
2023/08/22 05:31:29;;;;;;;8.33;3.00;;;19.60;99.90;;;19.40;73.94;101245.22;5054030;28;20198;-75
2023/08/22 05:34:03;;;;;;;6.03;2.67;;;19.60;99.90;;;19.41;74.49;101249.63;5053884;28;20218;-75
2023/08/22 05:36:37;;;;;;;4.07;2.53;;;19.60;99.90;;;19.42;75.51;101251.28;5054025;28;20190;-75
2023/08/22 05:39:11;;;;;;;4.87;3.10;;;19.60;99.90;;;19.39;75.16;101239.97;5053633;28;20221;-75
2023/08/22 05:41:44;;;;;;;5.93;2.83;;;19.60;99.90;;;19.40;74.67;101253.34;5053951;28;20221;-75
2023/08/22 05:44:18;;;;;;;7.07;2.80;;;19.60;99.90;;;19.41;75.36;101263.22;5053747;28;20234;-75
2023/08/22 05:46:51;;;;;;;9.23;2.93;;;19.60;99.90;;;19.43;75.85;101261.13;5053760;28;20735;-75
2023/08/22 05:49:25;;;;;;;7.80;2.57;;;19.60;99.90;;;19.45;75.52;101261.75;5053692;28;20233;-75
2023/08/22 05:52:06;;;;;;;9.23;2.90;;;19.70;99.90;;;19.46;75.54;101251.72;5053276;28;20298;-75
2023/08/22 05:54:41;;;;;;;8.10;2.77;;;19.70;99.90;;;19.48;73.40;101258.66;5053580;28;20313;-75
2023/08/22 05:57:15;;;;;;;5.13;2.50;;;19.70;99.90;;;19.49;74.28;101263.00;5053701;28;20221;-75
2023/08/22 05:59:48;;;;;;;7.67;3.00;;;19.70;99.90;;;19.50;74.92;101261.97;5053619;28;20251;-75
2023/08/22 06:02:21;;;;;;;9.33;3.50;;;19.70;99.90;;;19.52;75.90;101265.31;5053565;28;20190;-75
2023/08/22 06:04:55;;;;;;;6.13;2.67;;;19.70;99.90;;;19.53;75.53;101264.28;5053193;28;20622;-75
2023/08/22 06:07:29;;;;;;;5.50;2.53;;;19.80;99.90;;;19.53;74.38;101253.41;5053601;28;20252;-75
2023/08/22 06:10:02;;;;;;;5.57;2.60;;;19.80;99.90;;;19.54;72.46;101260.53;5053253;28;20727;-75
2023/08/22 06:12:36;;;;;;;6.33;2.67;;;19.80;99.90;;;19.57;72.48;101251.97;5053498;28;20217;-75
2023/08/22 06:15:12;;;;;;;7.07;2.97;;;19.80;99.90;;;19.59;70.84;101255.28;5053189;28;20277;-75
2023/08/22 06:17:45;;;;;;;8.07;2.70;;;19.90;99.90;;;19.60;69.77;101246.13;5053518;28;20217;-75
2023/08/22 06:20:19;;;;;;;5.10;2.40;;;19.90;99.70;;;19.63;70.12;101253.84;5053384;28;20198;-75
2023/08/22 06:22:52;;;;;;;9.10;2.70;;;19.90;99.70;;;19.66;70.40;101242.56;5053604;28;20228;-75
2023/08/22 06:25:26;;;;;;;4.63;2.40;;;20.00;99.90;;;19.68;69.41;101254.06;5053221;28;20305;-75
2023/08/22 06:28:00;;;;;;;4.73;2.40;;;20.00;99.50;;;19.71;69.53;101242.78;5053102;28;20193;-75
2023/08/22 06:30:33;;;;;;;6.03;2.30;;;20.00;99.50;;;19.74;68.85;101238.81;5053031;28;20605;-75
2023/08/22 06:33:08;;;;;;;5.50;2.70;;;20.00;99.00;;;19.77;68.97;101249.25;5053238;28;20226;-75
2023/08/22 06:35:41;;;;;;;6.23;2.80;;;20.10;99.20;;;19.80;68.85;101239.84;5053266;28;20228;-75
2023/08/22 06:38:14;;;;;;;7.00;2.60;;;20.10;99.20;;;19.83;69.83;101240.28;5053257;28;20281;-75
2023/08/22 06:40:48;;;;;;;6.97;2.60;;;20.10;99.50;;;19.87;70.03;101238.81;5053319;28;20226;-75
2023/08/22 06:43:22;;;;;;;4.27;2.60;;;20.20;99.70;;;19.91;69.07;101241.94;5053053;28;20232;-75
2023/08/22 06:45:58;;;;;;;8.20;2.60;;;20.20;99.10;;;19.96;68.24;101243.00;5053076;28;20238;-75
2023/08/22 06:48:32;;;;;;;5.43;2.63;;;20.30;98.80;;;20.02;68.57;101241.31;5053096;28;20202;-75
2023/08/22 06:51:14;;;;;;;7.77;2.77;;;20.40;99.30;;;20.06;66.49;101253.47;5053094;28;20195;-75
2023/08/22 06:53:47;;;;;;;7.83;2.70;;;20.40;97.80;;;20.09;66.81;101250.31;5052718;28;20660;-75
2023/08/22 06:56:21;;;;;;;5.07;2.70;;;20.50;97.90;;;20.14;68.38;101250.50;5053365;28;20212;-75
2023/08/22 06:58:54;;;;;;;4.50;2.77;;;20.50;98.70;;;20.21;64.69;101245.91;5053026;28;20194;-75
2023/08/22 07:01:27;;;;;;;7.67;2.17;;;20.50;96.60;;;20.25;65.39;101249.88;5053578;28;20194;-75
2023/08/22 07:04:01;;;;;;;5.80;2.10;;;20.60;97.10;;;20.31;63.20;101246.34;5056781;28;20228;-75
2023/08/22 07:06:49;;;;;;;7.53;2.20;;;20.70;96.20;;;20.37;62.50;101256.38;5056725;28;20229;-75
2023/08/22 07:09:22;;;;;;;5.23;2.47;;;20.80;95.60;;;20.39;64.58;101256.16;5056791;28;20194;-75
2023/08/22 07:11:56;;;;;;;5.70;2.60;;;20.80;96.50;;;20.43;65.14;101260.13;5056351;28;20644;-75
2023/08/22 07:14:29;;;;;;;5.67;2.33;;;20.80;96.80;;;20.44;67.56;101262.66;5056227;28;20240;-75
2023/08/22 07:17:02;;;;;;;7.57;2.70;;;20.80;98.10;;;20.45;68.19;101269.75;5056732;28;20194;-75
2023/08/22 07:19:35;;;;;;;6.33;2.67;;;20.80;98.40;;;20.47;68.67;101270.38;5056793;28;20195;-75
2023/08/22 07:22:14;;;;;;;3.23;2.43;;;20.80;98.60;;;20.48;69.23;101266.59;5056538;28;20236;-75
2023/08/22 07:24:47;;;;;;;4.73;2.40;;;20.80;99.20;;;20.51;69.91;101270.81;5056364;28;20319;-75
2023/08/22 07:27:21;;;;;;;6.30;2.83;;;20.80;99.20;;;20.51;66.80;101266.19;5056477;28;20273;-75
2023/08/22 07:29:55;;;;;;;6.70;3.20;;;20.90;97.90;;;20.55;68.92;101269.31;5056512;28;20194;-75
2023/08/22 07:32:28;;;;;;;4.83;2.40;;;20.90;99.10;;;20.56;67.54;101266.38;5056357;28;20210;-65
2023/08/22 07:35:04;;;;;;;9.27;2.70;;;20.90;98.30;;;20.59;62.63;101260.50;5056041;28;20213;-73
2023/08/22 07:37:38;;;;;;;5.77;2.80;;;21.00;95.70;;;20.64;63.90;101258.00;5056170;28;20194;-74
2023/08/22 07:40:16;;;;;;;5.97;3.10;;;21.00;96.10;;;20.68;64.49;101258.41;5055741;28;20593;-74
2023/08/22 07:42:49;;;;;;;5.13;2.20;;;21.00;96.60;;;20.78;64.24;101257.97;5056022;28;20193;-74
2023/08/22 07:45:23;;;;;;;5.57;2.87;;;21.10;96.20;;;20.83;62.48;101255.41;5056000;28;20316;-74
2023/08/22 07:47:59;;;;;;;4.47;2.27;;;21.20;95.50;;;20.89;65.54;101252.66;5055984;28;20207;-74
2023/08/22 07:50:33;;;;;;;4.00;2.00;;;21.30;96.90;;;20.95;64.48;101251.81;5055635;28;20640;-74
2023/08/22 07:53:08;;;;;;;6.97;2.57;;;21.40;96.50;;;21.05;62.85;101254.09;5055807;28;20335;-74
2023/08/22 07:55:41;;;;;;;3.63;2.03;;;21.40;95.50;;;21.20;62.48;101251.91;5056068;28;20277;-74
2023/08/22 07:58:15;;;;;;;5.20;2.30;;;21.60;95.90;;;21.23;61.74;101259.69;5055749;28;20209;-74
2023/08/22 08:00:51;;;;;;;5.90;2.47;;;21.60;95.10;;;21.29;62.29;101257.97;5055453;28;20226;-74
2023/08/22 08:03:24;;;;;;;5.40;2.40;;;21.70;95.30;;;21.38;61.31;101260.22;5055333;28;20635;-74
2023/08/22 08:05:59;;;;;;;9.87;7.07;;;21.70;94.60;;;21.41;63.68;101253.50;5055761;28;20210;-75
2023/08/22 08:08:32;;;;;;;4.83;2.67;;;21.80;95.70;;;21.45;64.48;101254.72;5055640;28;20226;-75
2023/08/22 08:11:05;;;;;;;6.00;2.50;;;21.80;96.30;;;21.50;63.48;101247.59;5055228;28;20229;-75
2023/08/22 08:13:39;;;;;;;5.87;2.60;;;21.90;95.70;;;21.62;61.05;101253.97;5054306;28;20229;-75
2023/08/22 08:16:13;;;;;;;6.13;2.27;;;22.00;94.80;;;21.70;61.69;101259.19;5055408;28;20214;-75
2023/08/22 08:18:56;;;;;;;4.27;2.37;;;22.10;94.90;;;21.71;65.61;101260.03;5055094;28;20652;-75
2023/08/22 08:21:30;;;;;;;7.50;2.63;;;22.10;96.90;;;21.71;65.10;101249.94;5055322;28;20281;-75
2023/08/22 08:24:04;;;;;;;4.63;2.20;;;22.10;96.60;;;21.75;63.41;101251.16;5055210;28;20321;-75
2023/08/22 08:26:38;;;;;;;6.70;2.83;;;22.20;95.70;;;21.84;61.73;101248.19;5054887;28;20702;-75
2023/08/22 08:29:12;;;;;;;7.10;3.17;;;22.20;94.90;;;21.86;64.22;101243.31;5055199;28;20278;-75
2023/08/22 08:31:47;;;;;;;6.80;2.77;;;22.20;96.10;;;21.94;61.55;101243.09;5055166;28;20221;-75
2023/08/22 08:34:21;;;;;;;5.10;2.53;;;22.30;94.80;;;22.00;65.03;101239.47;5054735;28;20312;-75
2023/08/22 08:36:55;;;;;;;3.83;2.47;;;22.30;96.60;;;22.11;63.67;101246.94;5055062;28;20187;-75
2023/08/22 08:39:29;;;;;;;7.90;2.80;;;22.50;95.90;;;22.20;63.98;101248.28;5055293;28;20190;-75
2023/08/22 08:42:14;;;;;;;6.67;2.27;;;22.60;96.20;;;22.32;61.99;101253.88;5054607;28;20277;-75
2023/08/22 08:44:47;;;;;;;11.20;3.07;;;22.80;94.90;;;22.35;62.71;101267.06;5054839;28;20291;-75
2023/08/22 08:47:21;;;;;;;7.47;2.60;;;22.80;95.60;;;22.38;63.54;101267.44;5054836;28;20220;-75
2023/08/22 08:49:57;;;;;;;9.37;3.13;;;22.80;95.80;;;22.44;61.49;101271.97;5054812;28;20194;-75
2023/08/22 08:52:32;;;;;;;8.53;2.80;;;22.80;94.80;;;22.49;61.60;101269.44;5055048;28;20198;-75
2023/08/22 08:55:10;;;;;;;7.07;2.80;;;22.90;94.70;;;22.57;63.42;101265.53;5054702;28;20181;-75
2023/08/22 08:57:43;;;;;;;7.40;2.90;;;22.90;95.80;;;22.64;62.44;101267.16;5054654;28;20255;-75
2023/08/22 09:00:19;;;;;;;7.10;2.87;;;23.00;95.30;;;22.69;63.89;101264.63;5054619;28;20198;-75
2023/08/22 09:02:53;;;;;;;5.73;2.63;;;23.10;96.10;;;22.78;62.02;101261.56;5054489;28;20225;-75
2023/08/22 09:05:28;;;;;;;5.07;2.77;;;23.10;95.10;;;22.88;60.87;101264.63;5054208;28;20540;-75
2023/08/22 09:08:20;;;;;;;6.93;3.00;;;23.20;94.50;;;22.98;61.12;101273.91;5054197;28;20185;-75
2023/08/22 09:10:58;;;;;;;8.80;3.27;;;23.30;94.50;;;23.06;59.98;101270.06;5054439;28;20190;-75
2023/08/22 09:13:32;;;;;;;6.33;2.80;;;23.40;94.00;;;23.08;61.56;101273.41;5054103;28;20325;-75
2023/08/22 09:16:29;;;;;;;6.33;2.77;;;23.40;94.90;;;23.13;63.19;101277.09;5054727;28;20213;-75
2023/08/22 09:19:07;;;;;;;6.37;2.50;;;23.50;95.60;;;23.15;60.06;101268.69;5053944;28;20673;-75
2023/08/22 09:21:55;;;;;;;5.67;2.47;;;23.40;93.90;;;23.16;62.54;101267.59;5054281;28;20212;-75
2023/08/22 09:24:30;;;;;;;7.53;2.60;;;23.40;95.30;;;23.19;61.38;101275.34;5053979;28;20261;-75
2023/08/22 09:27:06;;;;;;;4.93;2.63;;;23.50;94.70;;;23.26;60.18;101270.63;5053731;28;20552;-75
2023/08/22 09:29:42;;;;;;;5.93;2.77;;;23.60;93.90;;;23.30;60.92;101266.38;5054086;28;20225;-75
2023/08/22 09:32:16;;;;;;;6.63;3.00;;;23.60;94.40;;;23.37;59.61;101272.59;5054071;28;20186;-75
2023/08/22 09:35:01;;;;;;;8.83;2.70;;;23.70;93.70;;;23.45;59.23;101269.56;5053566;28;20715;-75
2023/08/22 09:37:40;;;;;;;7.77;2.70;;;23.80;93.50;;;23.55;58.91;101266.28;5053630;28;20656;-75
2023/08/22 09:40:20;;;;;;;11.60;3.10;;;23.80;93.30;;;23.59;57.58;101275.69;5053940;28;20198;-75
2023/08/22 09:42:54;;;;;;;6.93;3.20;;;23.90;92.90;;;23.61;58.72;101274.38;5053780;28;20201;-75
2023/08/22 09:45:31;;;;;;;7.70;3.13;;;23.90;93.10;;;23.64;59.37;101279.38;5053556;28;20192;-75
2023/08/22 09:48:07;;;;;;;8.87;3.20;;;23.90;93.50;;;23.67;57.26;101272.59;5053712;28;20216;-75
2023/08/22 09:50:45;;;;;;;4.63;2.70;;;23.90;92.20;;;23.72;58.71;101264.53;5053750;28;20189;-75
2023/08/22 09:53:21;;;;;;;7.70;2.87;;;24.00;92.80;;;23.80;56.69;101263.38;5053337;28;20312;-75
2023/08/22 09:55:57;;;;;;;8.60;3.50;;;24.10;92.00;;;23.84;58.21;101273.59;5053590;28;20289;-75
2023/08/22 09:58:32;;;;;;;7.13;2.70;;;24.10;92.80;;;23.94;57.72;101279.31;5053608;28;20252;-75
2023/08/22 10:01:07;;;;;;;8.83;3.20;;;24.20;92.40;;;23.99;58.16;101282.19;5053301;28;20663;-75
2023/08/22 10:03:42;;;;;;;5.57;2.73;;;24.30;92.70;;;23.94;55.26;101273.84;5053112;28;20624;-75
2023/08/22 10:06:17;;;;;;;6.93;2.83;;;24.20;91.40;;;23.93;55.29;101285.03;5053471;28;20190;-75
2023/08/22 10:08:50;;;;;;;5.43;2.50;;;24.10;91.30;;;23.95;55.25;101280.16;5053484;28;20236;-74
2023/08/22 10:11:27;;;;;;;5.63;2.60;;;24.10;91.00;;;23.98;55.90;101279.69;5053470;28;20237;-74
2023/08/22 10:14:01;;;;;;;6.43;2.80;;;24.20;91.50;;;24.02;55.64;101278.97;5053214;28;20260;-74
2023/08/22 10:16:38;;;;;;;5.03;2.90;;;24.20;91.10;;;24.07;54.99;101275.53;5053444;28;20182;-74
2023/08/22 10:19:14;;;;;;;9.73;2.90;;;24.30;91.10;;;24.09;56.18;101274.22;5053384;28;20280;-65
2023/08/22 10:21:53;;;;;;;9.87;3.23;;;24.30;91.70;;;24.15;56.90;101276.03;5054275;28;20200;-78
2023/08/22 10:24:35;;;;;;;8.00;3.23;;;24.30;92.00;;;24.25;55.30;101280.94;5055749;28;20722;-80
2023/08/22 10:27:12;;;;;;;11.20;3.00;;;24.40;91.10;;;24.32;55.17;101265.22;5055534;28;20245;-80
2023/08/22 10:29:47;;;;;;;7.53;3.10;;;24.50;91.30;;;24.43;55.28;101272.59;5058358;28;20725;-80
2023/08/22 10:32:30;;;;;;;7.30;2.73;;;24.60;90.90;;;24.47;55.79;101281.19;5060381;28;20277;-80
2023/08/22 10:35:24;;;;;;;9.17;3.00;;;24.70;91.30;;;24.56;55.40;101283.31;5057478;28;20243;-80
2023/08/22 10:37:58;;;;;;;6.50;3.00;;;24.80;90.90;;;24.65;53.38;101279.16;5061081;28;20247;-80
2023/08/22 10:40:38;;;;;;;6.90;3.40;;;24.90;89.20;;;24.63;52.13;101272.22;5062258;28;20221;-80
2023/08/22 10:43:15;;;;;;;4.47;2.60;;;24.80;88.20;;;24.67;54.49;101274.25;5063141;28;20257;-80
2023/08/22 10:45:53;;;;;;;6.63;2.50;;;24.90;90.50;;;24.74;54.09;101274.97;5063084;28;20190;-81